createdAt,value
2017-04-02T00:00:57.651Z,0
2017-04-02T00:01:58.374Z,0
2017-04-02T00:02:59.081Z,0
2017-04-02T00:03:59.785Z,0
2017-04-02T00:05:00.468Z,0
2017-04-02T00:06:01.147Z,0
2017-04-02T00:07:01.866Z,0
2017-04-02T00:08:02.566Z,0
2017-04-02T00:09:03.241Z,0
2017-04-02T00:10:03.930Z,0
2017-04-02T00:11:04.727Z,0
2017-04-02T00:12:05.419Z,0
2017-04-02T00:13:06.109Z,0
2017-04-02T00:14:06.793Z,0
2017-04-02T00:15:07.474Z,0
2017-04-02T00:16:08.160Z,0
2017-04-02T00:17:08.855Z,0
2017-04-02T00:18:09.539Z,0
2017-04-02T00:19:10.225Z,0
2017-04-02T00:20:10.900Z,0
2017-04-02T00:21:11.596Z,0
2017-04-02T00:22:12.279Z,0
2017-04-02T00:23:12.955Z,0
2017-04-02T00:24:13.633Z,0
2017-04-02T00:25:14.320Z,0
2017-04-02T00:26:15.045Z,0
2017-04-02T00:27:15.760Z,0
2017-04-02T00:28:16.472Z,0
2017-04-02T00:29:17.147Z,0
2017-04-02T00:30:17.870Z,0
2017-04-02T00:31:18.549Z,0
2017-04-02T00:32:19.234Z,0
2017-04-02T00:33:19.950Z,0
2017-04-02T00:34:20.649Z,0
2017-04-02T00:35:21.346Z,0
2017-04-02T00:36:22.030Z,0
2017-04-02T00:37:22.735Z,0
2017-04-02T00:38:23.446Z,0
2017-04-02T00:39:24.140Z,0
2017-04-02T00:40:24.846Z,0
2017-04-02T00:41:25.530Z,0
2017-04-02T00:42:26.208Z,0
2017-04-02T00:43:26.920Z,0
2017-04-02T00:44:27.597Z,0
2017-04-02T00:45:28.280Z,0
2017-04-02T00:46:28.959Z,0
2017-04-02T00:47:29.661Z,0
2017-04-02T00:48:30.331Z,0
2017-04-02T00:49:31.011Z,0
2017-04-02T00:50:31.704Z,0
2017-04-02T00:51:32.357Z,0
2017-04-02T00:52:33.045Z,0
2017-04-02T00:53:33.749Z,0
2017-04-02T00:54:34.426Z,0
2017-04-02T00:55:35.110Z,0
2017-04-02T00:56:35.815Z,0
2017-04-02T00:57:36.504Z,0
2017-04-02T00:58:37.194Z,0
2017-04-02T00:59:37.894Z,0
2017-04-02T01:00:38.605Z,0
2017-04-02T01:01:39.273Z,0
2017-04-02T01:02:39.960Z,0
2017-04-02T01:03:40.647Z,0
2017-04-02T01:04:41.347Z,0
2017-04-02T01:05:42.038Z,0
2017-04-02T01:06:42.759Z,0
2017-04-02T01:07:43.463Z,0
2017-04-02T01:08:44.188Z,0
2017-04-02T01:09:44.904Z,0
2017-04-02T01:10:45.600Z,0
2017-04-02T01:11:46.274Z,0
2017-04-02T01:12:46.982Z,0
2017-04-02T01:13:47.695Z,0
2017-04-02T01:14:48.382Z,0
2017-04-02T01:15:49.082Z,0
2017-04-02T01:16:49.772Z,0
2017-04-02T01:17:50.460Z,0
2017-04-02T01:18:51.152Z,0
2017-04-02T01:19:51.847Z,0
2017-04-02T01:20:52.520Z,0
2017-04-02T01:21:53.222Z,0
2017-04-02T01:22:53.937Z,0
2017-04-02T01:23:54.617Z,0
2017-04-02T01:24:55.311Z,0
2017-04-02T01:25:56.007Z,0
2017-04-02T01:26:56.694Z,0
2017-04-02T01:27:57.399Z,0
2017-04-02T01:28:58.079Z,0
2017-04-02T01:29:58.759Z,0
2017-04-02T01:30:59.433Z,0
2017-04-02T01:32:00.109Z,0
2017-04-02T01:33:00.804Z,0
2017-04-02T01:34:01.491Z,0
2017-04-02T01:35:02.173Z,0
2017-04-02T01:36:02.903Z,0
2017-04-02T01:37:03.614Z,0
2017-04-02T01:38:04.317Z,0
2017-04-02T01:39:05.007Z,0
2017-04-02T01:40:05.709Z,0
2017-04-02T01:41:06.404Z,0
2017-04-02T01:42:07.088Z,0
2017-04-02T01:43:07.803Z,0
2017-04-02T01:44:08.487Z,0
2017-04-02T01:45:09.233Z,0
2017-04-02T01:46:09.919Z,0
2017-04-02T01:47:10.616Z,0
2017-04-02T01:48:11.323Z,0
2017-04-02T01:49:11.999Z,0
2017-04-02T01:50:12.687Z,0
2017-04-02T01:51:13.382Z,0
2017-04-02T01:52:14.092Z,0
2017-04-02T01:53:14.790Z,0
2017-04-02T01:54:15.523Z,0
2017-04-02T01:55:16.227Z,0
2017-04-02T01:56:16.915Z,0
2017-04-02T01:57:17.633Z,0
2017-04-02T01:58:18.311Z,0
2017-04-02T01:59:19.011Z,0
2017-04-02T02:00:19.704Z,0
2017-04-02T02:01:20.401Z,0
2017-04-02T02:02:21.139Z,0
2017-04-02T02:03:21.857Z,0
2017-04-02T02:04:22.529Z,0
2017-04-02T02:05:23.200Z,0
2017-04-02T02:06:23.885Z,0
2017-04-02T02:07:24.585Z,0
2017-04-02T02:08:25.256Z,0
2017-04-02T02:09:25.942Z,0
2017-04-02T02:10:26.635Z,0
2017-04-02T02:11:27.329Z,0
2017-04-02T02:12:28.061Z,0
2017-04-02T02:13:28.851Z,0
2017-04-02T02:14:29.546Z,0
2017-04-02T02:15:30.227Z,0
2017-04-02T02:16:30.910Z,0
2017-04-02T02:17:31.588Z,0
2017-04-02T02:18:32.305Z,0
2017-04-02T02:19:32.994Z,0
2017-04-02T02:20:33.695Z,0
2017-04-02T02:21:34.372Z,0
2017-04-02T02:22:35.050Z,0
2017-04-02T02:23:35.731Z,0
2017-04-02T02:24:36.421Z,0
2017-04-02T02:25:37.104Z,0
2017-04-02T02:26:37.796Z,0
2017-04-02T02:27:38.484Z,0
2017-04-02T02:28:39.165Z,0
2017-04-02T02:29:39.858Z,0
2017-04-02T02:30:40.538Z,0
2017-04-02T02:31:41.231Z,0
2017-04-02T02:32:41.927Z,0
2017-04-02T02:33:42.630Z,0
2017-04-02T02:34:43.316Z,0
2017-04-02T02:35:43.994Z,0
2017-04-02T02:36:44.664Z,0
2017-04-02T02:37:45.379Z,0
2017-04-02T02:38:46.055Z,0
2017-04-02T02:39:46.752Z,0
2017-04-02T02:40:47.435Z,0
2017-04-02T02:41:48.098Z,0
2017-04-02T02:42:48.808Z,0
2017-04-02T02:43:49.509Z,0
2017-04-02T02:44:50.189Z,0
2017-04-02T02:45:50.892Z,0
2017-04-02T02:46:51.579Z,0
2017-04-02T02:47:52.278Z,0
2017-04-02T02:48:52.973Z,0
2017-04-02T02:49:53.679Z,0
2017-04-02T02:50:54.352Z,0
2017-04-02T02:51:55.034Z,0
2017-04-02T02:52:55.738Z,0
2017-04-02T02:53:56.428Z,0
2017-04-02T02:54:57.096Z,0
2017-04-02T02:55:57.774Z,0
2017-04-02T02:56:58.495Z,0
2017-04-02T02:57:59.180Z,0
2017-04-02T02:58:59.874Z,0
2017-04-02T03:00:00.569Z,0
2017-04-02T03:01:01.254Z,0
2017-04-02T03:02:01.940Z,0
2017-04-02T03:03:02.624Z,0
2017-04-02T03:04:03.309Z,0
2017-04-02T03:05:03.987Z,0
2017-04-02T03:06:04.678Z,0
2017-04-02T03:07:05.361Z,0
2017-04-02T03:08:06.038Z,0
2017-04-02T03:09:06.728Z,0
2017-04-02T03:10:07.424Z,0
2017-04-02T03:11:08.118Z,0
2017-04-02T03:12:08.811Z,0
2017-04-02T03:13:09.503Z,0
2017-04-02T03:14:10.184Z,0
2017-04-02T03:15:10.908Z,0
2017-04-02T03:16:11.624Z,0
2017-04-02T03:17:12.301Z,0
2017-04-02T03:18:12.984Z,0
2017-04-02T03:19:13.696Z,0
2017-04-02T03:20:14.385Z,0
2017-04-02T03:21:15.085Z,0
2017-04-02T03:22:15.772Z,0
2017-04-02T03:23:16.470Z,0
2017-04-02T03:24:17.158Z,0
2017-04-02T03:25:17.858Z,0
2017-04-02T03:26:18.550Z,0
2017-04-02T03:27:19.225Z,0
2017-04-02T03:28:19.907Z,0
2017-04-02T03:29:20.600Z,0
2017-04-02T03:30:21.291Z,0
2017-04-02T03:31:21.961Z,0
2017-04-02T03:32:22.660Z,0
2017-04-02T03:33:23.341Z,0
2017-04-02T03:34:24.049Z,0
2017-04-02T03:35:24.736Z,0
2017-04-02T03:36:25.432Z,0
2017-04-02T03:37:26.115Z,0
2017-04-02T03:38:26.802Z,0
2017-04-02T03:39:27.477Z,0
2017-04-02T03:40:28.178Z,0
2017-04-02T03:41:28.856Z,0
2017-04-02T03:42:29.526Z,0
2017-04-02T03:43:30.226Z,0
2017-04-02T03:44:30.886Z,0
2017-04-02T03:45:31.567Z,0
2017-04-02T03:46:32.263Z,0
2017-04-02T03:47:32.955Z,0
2017-04-02T03:48:33.658Z,0
2017-04-02T03:49:34.363Z,0
2017-04-02T03:50:35.053Z,0
2017-04-02T03:51:35.727Z,0
2017-04-02T03:52:36.432Z,0
2017-04-02T03:53:37.104Z,0
2017-04-02T03:54:37.779Z,0
2017-04-02T03:55:38.473Z,0
2017-04-02T03:56:39.151Z,0
2017-04-02T03:57:39.833Z,0
2017-04-02T03:58:40.520Z,0
2017-04-02T03:59:41.216Z,0
2017-04-02T04:00:41.916Z,0
2017-04-02T04:01:42.584Z,0
2017-04-02T04:02:43.284Z,0
2017-04-02T04:03:43.958Z,0
2017-04-02T04:04:44.674Z,0
2017-04-02T04:05:45.364Z,0
2017-04-02T04:06:46.047Z,0
2017-04-02T04:07:46.718Z,0
2017-04-02T04:08:47.419Z,0
2017-04-02T04:09:48.094Z,0
2017-04-02T04:10:48.799Z,0
2017-04-02T04:11:49.506Z,0
2017-04-02T04:12:50.208Z,0
2017-04-02T04:13:50.893Z,0
2017-04-02T04:14:51.582Z,0
2017-04-02T04:15:52.280Z,0
2017-04-02T04:16:52.979Z,0
2017-04-02T04:17:53.651Z,0
2017-04-02T04:18:54.335Z,0
2017-04-02T04:19:55.028Z,0
2017-04-02T04:20:55.713Z,0
2017-04-02T04:21:56.409Z,0
2017-04-02T04:22:57.098Z,0
2017-04-02T04:23:57.784Z,0
2017-04-02T04:24:58.475Z,0
2017-04-02T04:25:59.157Z,0
2017-04-02T04:26:59.824Z,0
2017-04-02T04:28:00.524Z,0
2017-04-02T04:29:01.205Z,0
2017-04-02T04:30:01.905Z,0
2017-04-02T04:31:02.586Z,0
2017-04-02T04:32:03.263Z,0
2017-04-02T04:33:03.939Z,0
2017-04-02T04:34:04.638Z,0
2017-04-02T04:35:05.338Z,0
2017-04-02T04:36:06.013Z,0
2017-04-02T04:37:06.682Z,0
2017-04-02T04:38:07.350Z,0
2017-04-02T04:39:08.024Z,0
2017-04-02T04:40:08.709Z,0
2017-04-02T04:41:09.416Z,0
2017-04-02T04:42:10.106Z,5
2017-04-02T04:43:10.812Z,5
2017-04-02T04:44:11.518Z,5
2017-04-02T04:45:12.209Z,5
2017-04-02T04:46:12.896Z,5
2017-04-02T04:47:13.581Z,5
2017-04-02T04:48:14.271Z,5
2017-04-02T04:49:14.948Z,10
2017-04-02T04:50:15.627Z,10
2017-04-02T04:51:16.317Z,10
2017-04-02T04:52:17.001Z,10
2017-04-02T04:53:17.696Z,10
2017-04-02T04:54:18.373Z,10
2017-04-02T04:55:19.049Z,15
2017-04-02T04:56:19.783Z,15
2017-04-02T04:57:20.434Z,15
2017-04-02T04:58:21.115Z,15
2017-04-02T04:59:21.788Z,15
2017-04-02T05:00:22.489Z,20
2017-04-02T05:01:23.167Z,20
2017-04-02T05:02:23.849Z,20
2017-04-02T05:03:24.574Z,25
2017-04-02T05:04:25.266Z,25
2017-04-02T05:05:25.973Z,25
2017-04-02T05:06:26.639Z,30
2017-04-02T05:07:27.368Z,30
2017-04-02T05:08:28.067Z,30
2017-04-02T05:09:28.758Z,35
2017-04-02T05:10:29.444Z,35
2017-04-02T05:11:30.158Z,40
2017-04-02T05:12:30.861Z,45
2017-04-02T05:13:31.556Z,50
2017-04-02T05:14:32.234Z,55
2017-04-02T05:15:32.910Z,60
2017-04-02T05:16:33.584Z,65
2017-04-02T05:17:34.285Z,65
2017-04-02T05:18:34.964Z,65
2017-04-02T05:19:35.671Z,65
2017-04-02T05:20:36.365Z,70
2017-04-02T05:21:37.067Z,70
2017-04-02T05:22:37.794Z,75
2017-04-02T05:23:38.478Z,80
2017-04-02T05:24:39.174Z,80
2017-04-02T05:25:39.865Z,80
2017-04-02T05:26:40.590Z,80
2017-04-02T05:27:41.287Z,80
2017-04-02T05:28:42.003Z,80
2017-04-02T05:29:42.690Z,85
2017-04-02T05:30:43.380Z,90
2017-04-02T05:31:44.108Z,90
2017-04-02T05:32:44.794Z,95
2017-04-02T05:33:45.468Z,100
2017-04-02T05:34:46.171Z,100
2017-04-02T05:35:46.891Z,100
2017-04-02T05:36:47.579Z,105
2017-04-02T05:37:48.277Z,105
2017-04-02T05:38:48.960Z,110
2017-04-02T05:39:49.645Z,120
2017-04-02T05:40:50.325Z,120
2017-04-02T05:41:51.017Z,125
2017-04-02T05:42:51.693Z,125
2017-04-02T05:43:52.381Z,125
2017-04-02T05:44:53.074Z,125
2017-04-02T05:45:53.810Z,130
2017-04-02T05:46:54.468Z,135
2017-04-02T05:47:55.208Z,140
2017-04-02T05:48:55.862Z,135
2017-04-02T05:49:56.553Z,135
2017-04-02T05:50:57.229Z,135
2017-04-02T05:51:57.918Z,140
2017-04-02T05:52:58.633Z,140
2017-04-02T05:53:59.327Z,140
2017-04-02T05:55:00.012Z,145
2017-04-02T05:56:00.715Z,145
2017-04-02T05:57:01.415Z,145
2017-04-02T05:58:02.104Z,150
2017-04-02T05:59:02.797Z,155
2017-04-02T06:00:03.485Z,155
2017-04-02T06:01:04.172Z,145
2017-04-02T06:02:04.867Z,145
2017-04-02T06:03:05.548Z,155
2017-04-02T06:04:06.266Z,155
2017-04-02T06:05:06.965Z,165
2017-04-02T06:06:07.669Z,160
2017-04-02T06:07:08.357Z,175
2017-04-02T06:08:09.062Z,190
2017-04-02T06:09:09.761Z,215
2017-04-02T06:10:10.460Z,235
2017-04-02T06:11:11.150Z,250
2017-04-02T06:12:11.857Z,255
2017-04-02T06:13:12.557Z,255
2017-04-02T06:14:13.259Z,255
2017-04-02T06:15:13.934Z,255
2017-04-02T06:16:14.645Z,255
2017-04-02T06:17:15.333Z,225
2017-04-02T06:18:16.041Z,215
2017-04-02T06:19:16.731Z,210
2017-04-02T06:20:17.435Z,345
2017-04-02T06:21:18.111Z,205
2017-04-02T06:22:18.810Z,200
2017-04-02T06:23:19.523Z,200
2017-04-02T06:24:20.223Z,200
2017-04-02T06:25:20.928Z,195
2017-04-02T06:26:21.610Z,195
2017-04-02T06:27:22.295Z,205
2017-04-02T06:28:22.976Z,210
2017-04-02T06:29:23.673Z,225
2017-04-02T06:30:24.372Z,235
2017-04-02T06:31:25.086Z,255
2017-04-02T06:32:25.836Z,255
2017-04-02T06:33:26.503Z,260
2017-04-02T06:34:27.197Z,270
2017-04-02T06:35:27.885Z,325
2017-04-02T06:36:28.553Z,365
2017-04-02T06:37:29.226Z,595
2017-04-02T06:38:29.914Z,830
2017-04-02T06:39:30.612Z,880
2017-04-02T06:40:31.309Z,550
2017-04-02T06:41:32.021Z,940
2017-04-02T06:42:32.736Z,960
2017-04-02T06:43:33.435Z,960
2017-04-02T06:44:34.130Z,955
2017-04-02T06:45:34.822Z,975
2017-04-02T06:46:35.517Z,965
2017-04-02T06:47:36.212Z,975
2017-04-02T06:48:36.900Z,995
2017-04-02T06:49:37.591Z,1035
2017-04-02T06:50:38.275Z,1075
2017-04-02T06:51:38.992Z,1025
2017-04-02T06:52:39.719Z,1060
2017-04-02T06:53:40.431Z,1120
2017-04-02T06:54:41.117Z,1050
2017-04-02T06:55:41.835Z,635
2017-04-02T06:56:42.531Z,480
2017-04-02T06:57:43.218Z,1200
2017-04-02T06:58:43.914Z,1165
2017-04-02T06:59:44.621Z,1110
2017-04-02T07:00:45.315Z,1085
2017-04-02T07:01:45.997Z,1125
2017-04-02T07:02:46.696Z,1075
2017-04-02T07:03:47.412Z,1115
2017-04-02T07:04:48.117Z,995
2017-04-02T07:05:48.849Z,1290
2017-04-02T07:06:49.521Z,1255
2017-04-02T07:07:50.247Z,1270
2017-04-02T07:08:50.939Z,1430
2017-04-02T07:09:51.633Z,1450
2017-04-02T07:10:52.335Z,1445
2017-04-02T07:11:53.024Z,1500
2017-04-02T07:12:53.721Z,1430
2017-04-02T07:13:54.424Z,1405
2017-04-02T07:14:55.115Z,1505
2017-04-02T07:15:55.800Z,1465
2017-04-02T07:16:56.496Z,1470
2017-04-02T07:17:57.186Z,1540
2017-04-02T07:18:57.887Z,1660
2017-04-02T07:19:58.591Z,1640
2017-04-02T07:20:59.313Z,1660
2017-04-02T07:22:00.009Z,1615
2017-04-02T07:23:00.724Z,1620
2017-04-02T07:24:01.422Z,1620
2017-04-02T07:25:02.112Z,1630
2017-04-02T07:26:02.829Z,1575
2017-04-02T07:27:03.534Z,1385
2017-04-02T07:28:04.257Z,1545
2017-04-02T07:29:04.969Z,1640
2017-04-02T07:30:05.680Z,1635
2017-04-02T07:31:06.390Z,1660
2017-04-02T07:32:07.111Z,1660
2017-04-02T07:33:07.799Z,1615
2017-04-02T07:34:08.504Z,1610
2017-04-02T07:35:09.198Z,1765
2017-04-02T07:36:09.908Z,1760
2017-04-02T07:37:10.652Z,1780
2017-04-02T07:38:11.360Z,1755
2017-04-02T07:39:12.095Z,1860
2017-04-02T07:40:12.807Z,1795
2017-04-02T07:41:13.536Z,1815
2017-04-02T07:42:14.286Z,1810
2017-04-02T07:43:15.026Z,1770
2017-04-02T07:44:15.726Z,1765
2017-04-02T07:45:16.432Z,1745
2017-04-02T07:46:17.278Z,1795
2017-04-02T07:47:17.989Z,1815
2017-04-02T07:48:18.697Z,1860
2017-04-02T07:49:19.426Z,1860
2017-04-02T07:50:20.148Z,1870
2017-04-02T07:51:20.843Z,1855
2017-04-02T07:52:21.576Z,1890
2017-04-02T07:53:22.287Z,1920
2017-04-02T07:54:23.006Z,1955
2017-04-02T07:55:23.710Z,1930
2017-04-02T07:56:24.428Z,1955
2017-04-02T07:57:25.150Z,1840
2017-04-02T07:58:25.863Z,1840
2017-04-02T07:59:26.567Z,1875
2017-04-02T08:00:27.266Z,1845
2017-04-02T08:01:27.981Z,1940
2017-04-02T08:02:28.700Z,1915
2017-04-02T08:03:29.405Z,2015
2017-04-02T08:04:30.110Z,2015
2017-04-02T08:05:30.832Z,1980
2017-04-02T08:06:31.562Z,2020
2017-04-02T08:07:32.272Z,2060
2017-04-02T08:08:33.005Z,2075
2017-04-02T08:09:33.710Z,2085
2017-04-02T08:10:34.438Z,2080
2017-04-02T08:11:35.161Z,2110
2017-04-02T08:12:35.885Z,2155
2017-04-02T08:13:36.602Z,2170
2017-04-02T08:14:37.323Z,2130
2017-04-02T08:15:38.023Z,2145
2017-04-02T08:16:38.728Z,2175
2017-04-02T08:17:39.423Z,2140
2017-04-02T08:18:40.142Z,2105
2017-04-02T08:19:40.849Z,2110
2017-04-02T08:20:41.584Z,2065
2017-04-02T08:21:42.309Z,2035
2017-04-02T08:22:43.016Z,1945
2017-04-02T08:23:43.772Z,2035
2017-04-02T08:24:44.482Z,2065
2017-04-02T08:25:45.191Z,2055
2017-04-02T08:26:45.925Z,2180
2017-04-02T08:27:46.636Z,2155
2017-04-02T08:28:47.333Z,2200
2017-04-02T08:29:48.026Z,2240
2017-04-02T08:30:48.756Z,2260
2017-04-02T08:31:49.471Z,2245
2017-04-02T08:32:50.175Z,2130
2017-04-02T08:33:50.882Z,2275
2017-04-02T08:34:51.581Z,2305
2017-04-02T08:35:52.278Z,2290
2017-04-02T08:36:52.989Z,2215
2017-04-02T08:37:53.715Z,2180
2017-04-02T08:38:54.434Z,2270
2017-04-02T08:39:55.161Z,2160
2017-04-02T08:40:55.879Z,2080
2017-04-02T08:41:56.598Z,1975
2017-04-02T08:42:57.286Z,2055
2017-04-02T08:43:57.996Z,1990
2017-04-02T08:44:58.712Z,2120
2017-04-02T08:45:59.426Z,2215
2017-04-02T08:47:00.134Z,2240
2017-04-02T08:48:00.900Z,2350
2017-04-02T08:49:01.623Z,2280
2017-04-02T08:50:02.353Z,2310
2017-04-02T08:51:03.066Z,2200
2017-04-02T08:52:03.778Z,2285
2017-04-02T08:53:04.480Z,710
2017-04-02T08:54:05.248Z,2255
2017-04-02T08:55:05.969Z,2320
2017-04-02T08:56:06.696Z,2250
2017-04-02T08:57:07.440Z,2200
2017-04-02T08:58:08.185Z,2250
2017-04-02T08:59:08.875Z,2310
2017-04-02T09:00:09.573Z,2325
2017-04-02T09:01:10.321Z,2330
2017-04-02T09:02:11.081Z,2285
2017-04-02T09:03:11.814Z,2265
2017-04-02T09:04:12.527Z,2300
2017-04-02T09:05:13.248Z,1650
2017-04-02T09:06:13.985Z,2265
2017-04-02T09:07:14.709Z,2395
2017-04-02T09:08:15.412Z,2460
2017-04-02T09:09:16.137Z,1080
2017-04-02T09:10:16.868Z,2385
2017-04-02T09:11:17.581Z,2445
2017-04-02T09:12:18.290Z,1895
2017-04-02T09:13:18.995Z,2380
2017-04-02T09:14:19.708Z,2330
2017-04-02T09:15:20.412Z,485
2017-04-02T09:16:21.118Z,2340
2017-04-02T09:17:21.826Z,2225
2017-04-02T09:18:22.537Z,2235
2017-04-02T09:19:23.244Z,1260
2017-04-02T09:20:23.951Z,1060
2017-04-02T09:21:24.675Z,445
2017-04-02T09:22:25.397Z,2475
2017-04-02T09:23:26.115Z,2440
2017-04-02T09:24:26.835Z,2480
2017-04-02T09:25:27.569Z,2375
2017-04-02T09:26:28.280Z,2435
2017-04-02T09:27:29.060Z,430
2017-04-02T09:28:29.769Z,365
2017-04-02T09:29:30.494Z,380
2017-04-02T09:30:31.203Z,2300
2017-04-02T09:31:31.897Z,2380
2017-04-02T09:32:32.618Z,2265
2017-04-02T09:33:33.322Z,415
2017-04-02T09:34:34.024Z,565
2017-04-02T09:35:34.727Z,455
2017-04-02T09:36:35.462Z,485
2017-04-02T09:37:36.142Z,435
2017-04-02T09:38:36.885Z,385
2017-04-02T09:39:37.580Z,445
2017-04-02T09:40:38.272Z,405
2017-04-02T09:41:38.991Z,410
2017-04-02T09:42:39.696Z,390
2017-04-02T09:43:40.391Z,395
2017-04-02T09:44:41.137Z,385
2017-04-02T09:45:41.887Z,380
2017-04-02T09:46:42.580Z,395
2017-04-02T09:47:43.314Z,435
2017-04-02T09:48:44.036Z,400
2017-04-02T09:49:44.750Z,385
2017-04-02T09:50:45.450Z,380
2017-04-02T09:51:46.152Z,370
2017-04-02T09:52:46.858Z,395
2017-04-02T09:53:47.554Z,420
2017-04-02T09:54:48.475Z,430
2017-04-02T09:55:49.359Z,420
2017-04-02T09:56:50.069Z,390
2017-04-02T09:57:50.742Z,370
2017-04-02T09:58:51.428Z,365
2017-04-02T09:59:52.142Z,340
2017-04-02T10:00:52.855Z,345
2017-04-02T10:01:53.561Z,375
2017-04-02T10:02:54.269Z,375
2017-04-02T10:03:55.009Z,360
2017-04-02T10:04:55.725Z,360
2017-04-02T10:05:56.467Z,355
2017-04-02T10:06:57.195Z,355
2017-04-02T10:07:57.896Z,355
2017-04-02T10:08:58.616Z,375
2017-04-02T10:09:59.336Z,370
2017-04-02T10:11:00.043Z,405
2017-04-02T10:12:00.749Z,400
2017-04-02T10:13:01.473Z,400
2017-04-02T10:14:02.190Z,395
2017-04-02T10:15:02.899Z,360
2017-04-02T10:16:03.613Z,395
2017-04-02T10:17:04.315Z,385
2017-04-02T10:18:05.017Z,400
2017-04-02T10:19:05.712Z,400
2017-04-02T10:20:06.411Z,410
2017-04-02T10:21:07.123Z,385
2017-04-02T10:22:07.857Z,365
2017-04-02T10:23:08.620Z,365
2017-04-02T10:24:09.395Z,355
2017-04-02T10:25:10.260Z,350
2017-04-02T10:26:11.160Z,345
2017-04-02T10:27:11.904Z,340
2017-04-02T10:28:12.603Z,340
2017-04-02T10:29:13.352Z,345
2017-04-02T10:30:14.060Z,345
2017-04-02T10:31:14.799Z,345
2017-04-02T10:32:15.504Z,385
2017-04-02T10:33:16.218Z,390
2017-04-02T10:34:16.942Z,370
2017-04-02T10:35:17.656Z,380
2017-04-02T10:36:18.894Z,385
2017-04-02T10:37:19.423Z,375
2017-04-02T10:38:20.602Z,390
2017-04-02T10:39:21.288Z,420
2017-04-02T10:40:22.072Z,390
2017-04-02T10:41:22.777Z,355
2017-04-02T10:42:23.496Z,340
2017-04-02T10:43:24.198Z,330
2017-04-02T10:44:24.882Z,315
2017-04-02T10:45:25.610Z,320
2017-04-02T10:46:26.325Z,365
2017-04-02T10:47:27.046Z,380
2017-04-02T10:48:27.752Z,395
2017-04-02T10:49:28.437Z,370
2017-04-02T10:50:29.167Z,405
2017-04-02T10:51:29.875Z,435
2017-04-02T10:52:30.663Z,440
2017-04-02T10:53:31.332Z,465
2017-04-02T10:54:32.040Z,440
2017-04-02T10:55:32.726Z,375
2017-04-02T10:56:33.484Z,395
2017-04-02T10:57:34.188Z,395
2017-04-02T10:58:34.903Z,380
2017-04-02T10:59:35.635Z,375
2017-04-02T11:00:36.334Z,410
2017-04-02T11:01:37.045Z,395
2017-04-02T11:02:37.760Z,510
2017-04-02T11:03:38.465Z,540
2017-04-02T11:04:39.186Z,560
2017-04-02T11:05:39.909Z,515
2017-04-02T11:06:40.651Z,470
2017-04-02T11:07:41.360Z,475
2017-04-02T11:08:42.079Z,465
2017-04-02T11:09:42.798Z,440
2017-04-02T11:10:43.514Z,425
2017-04-02T11:11:44.214Z,475
2017-04-02T11:12:44.931Z,480
2017-04-02T11:13:45.639Z,460
2017-04-02T11:14:46.345Z,400
2017-04-02T11:15:47.067Z,380
2017-04-02T11:16:47.767Z,390
2017-04-02T11:17:48.482Z,425
2017-04-02T11:18:49.275Z,415
2017-04-02T11:19:49.972Z,395
2017-04-02T11:20:50.705Z,395
2017-04-02T11:21:51.430Z,435
2017-04-02T11:22:52.143Z,495
2017-04-02T11:23:52.861Z,535
2017-04-02T11:24:53.591Z,445
2017-04-02T11:25:54.316Z,410
2017-04-02T11:26:55.055Z,415
2017-04-02T11:27:55.766Z,420
